sensor_id;sensor_type;location;lat;lon;timestamp;P1;durP1;ratioP1;P2;durP2;ratioP2
49590;SDS011;35496;-21.974;-46.800;2023-03-12T00:02:14;1.52;;;1.17;;
49590;SDS011;35496;-21.974;-46.800;2023-03-12T00:04:40;2.17;;;1.77;;
49590;SDS011;35496;-21.974;-46.800;2023-03-12T00:07:06;4.97;;;1.67;;
49590;SDS011;35496;-21.974;-46.800;2023-03-12T00:09:34;3.08;;;1.25;;
49590;SDS011;35496;-21.974;-46.800;2023-03-12T00:12:00;2.63;;;2.10;;
49590;SDS011;35496;-21.974;-46.800;2023-03-12T00:14:26;4.85;;;2.30;;
49590;SDS011;35496;-21.974;-46.800;2023-03-12T00:16:52;2.97;;;2.78;;
49590;SDS011;35496;-21.974;-46.800;2023-03-12T00:19:20;2.17;;;1.98;;
49590;SDS011;35496;-21.974;-46.800;2023-03-12T00:21:46;3.40;;;2.25;;
49590;SDS011;35496;-21.974;-46.800;2023-03-12T00:24:12;4.25;;;2.08;;
49590;SDS011;35496;-21.974;-46.800;2023-03-12T00:26:38;4.00;;;2.10;;
49590;SDS011;35496;-21.974;-46.800;2023-03-12T00:29:04;3.47;;;3.15;;
49590;SDS011;35496;-21.974;-46.800;2023-03-12T00:31:31;5.95;;;2.35;;
49590;SDS011;35496;-21.974;-46.800;2023-03-12T00:33:58;6.97;;;1.88;;
49590;SDS011;35496;-21.974;-46.800;2023-03-12T00:36:25;2.28;;;2.08;;
49590;SDS011;35496;-21.974;-46.800;2023-03-12T00:38:52;3.05;;;1.23;;
49590;SDS011;35496;-21.974;-46.800;2023-03-12T00:41:18;3.67;;;2.17;;
49590;SDS011;35496;-21.974;-46.800;2023-03-12T00:43:45;2.58;;;1.83;;
49590;SDS011;35496;-21.974;-46.800;2023-03-12T00:46:11;2.25;;;1.60;;
49590;SDS011;35496;-21.974;-46.800;2023-03-12T00:48:38;5.93;;;1.83;;
49590;SDS011;35496;-21.974;-46.800;2023-03-12T00:51:04;7.85;;;1.88;;
49590;SDS011;35496;-21.974;-46.800;2023-03-12T00:53:30;2.78;;;1.60;;
49590;SDS011;35496;-21.974;-46.800;2023-03-12T00:55:56;8.73;;;1.98;;
49590;SDS011;35496;-21.974;-46.800;2023-03-12T00:58:22;3.30;;;2.05;;
49590;SDS011;35496;-21.974;-46.800;2023-03-12T01:00:49;3.65;;;2.03;;
49590;SDS011;35496;-21.974;-46.800;2023-03-12T01:03:15;6.85;;;1.95;;
49590;SDS011;35496;-21.974;-46.800;2023-03-12T01:05:41;1.58;;;1.35;;
49590;SDS011;35496;-21.974;-46.800;2023-03-12T01:08:07;2.92;;;1.80;;
49590;SDS011;35496;-21.974;-46.800;2023-03-12T01:10:34;3.35;;;1.38;;
49590;SDS011;35496;-21.974;-46.800;2023-03-12T01:13:00;2.75;;;1.08;;
49590;SDS011;35496;-21.974;-46.800;2023-03-12T01:15:26;3.92;;;1.55;;
49590;SDS011;35496;-21.974;-46.800;2023-03-12T01:17:53;4.97;;;1.38;;
49590;SDS011;35496;-21.974;-46.800;2023-03-12T01:20:19;3.70;;;1.38;;
49590;SDS011;35496;-21.974;-46.800;2023-03-12T01:22:45;5.28;;;1.60;;
49590;SDS011;35496;-21.974;-46.800;2023-03-12T01:25:11;2.25;;;1.60;;
49590;SDS011;35496;-21.974;-46.800;2023-03-12T01:27:37;5.35;;;2.63;;
49590;SDS011;35496;-21.974;-46.800;2023-03-12T01:30:03;3.10;;;1.73;;
49590;SDS011;35496;-21.974;-46.800;2023-03-12T01:32:30;5.25;;;2.25;;
49590;SDS011;35496;-21.974;-46.800;2023-03-12T01:34:56;2.88;;;1.58;;
49590;SDS011;35496;-21.974;-46.800;2023-03-12T01:37:23;5.00;;;1.52;;
49590;SDS011;35496;-21.974;-46.800;2023-03-12T01:39:49;6.43;;;1.42;;
49590;SDS011;35496;-21.974;-46.800;2023-03-12T01:42:15;4.13;;;1.60;;
49590;SDS011;35496;-21.974;-46.800;2023-03-12T01:44:51;3.42;;;1.45;;
49590;SDS011;35496;-21.974;-46.800;2023-03-12T01:47:17;2.88;;;1.40;;
49590;SDS011;35496;-21.974;-46.800;2023-03-12T01:49:43;1.90;;;1.40;;
49590;SDS011;35496;-21.974;-46.800;2023-03-12T01:52:11;4.47;;;1.65;;
49590;SDS011;35496;-21.974;-46.800;2023-03-12T01:54:43;5.03;;;2.05;;
49590;SDS011;35496;-21.974;-46.800;2023-03-12T01:57:14;5.10;;;2.17;;
49590;SDS011;35496;-21.974;-46.800;2023-03-12T01:59:44;5.75;;;2.05;;
49590;SDS011;35496;-21.974;-46.800;2023-03-12T02:02:12;5.03;;;1.40;;
49590;SDS011;35496;-21.974;-46.800;2023-03-12T02:04:39;7.90;;;2.95;;
49590;SDS011;35496;-21.974;-46.800;2023-03-12T02:07:10;15.27;;;2.22;;
49590;SDS011;35496;-21.974;-46.800;2023-03-12T02:09:46;4.88;;;2.50;;
49590;SDS011;35496;-21.974;-46.800;2023-03-12T02:12:13;5.90;;;3.60;;
49590;SDS011;35496;-21.974;-46.800;2023-03-12T02:14:39;4.57;;;2.20;;
49590;SDS011;35496;-21.974;-46.800;2023-03-12T02:17:05;2.97;;;2.67;;
49590;SDS011;35496;-21.974;-46.800;2023-03-12T02:21:57;4.65;;;2.97;;
49590;SDS011;35496;-21.974;-46.800;2023-03-12T02:26:50;10.13;;;2.97;;
49590;SDS011;35496;-21.974;-46.800;2023-03-12T02:29:16;8.93;;;4.18;;
49590;SDS011;35496;-21.974;-46.800;2023-03-12T02:31:43;3.40;;;1.70;;
49590;SDS011;35496;-21.974;-46.800;2023-03-12T02:34:11;2.83;;;1.85;;
49590;SDS011;35496;-21.974;-46.800;2023-03-12T02:36:37;1.95;;;1.63;;
49590;SDS011;35496;-21.974;-46.800;2023-03-12T02:39:04;2.75;;;1.90;;
49590;SDS011;35496;-21.974;-46.800;2023-03-12T02:41:31;3.42;;;1.67;;
49590;SDS011;35496;-21.974;-46.800;2023-03-12T02:46:34;2.70;;;1.08;;
49590;SDS011;35496;-21.974;-46.800;2023-03-12T02:49:02;1.58;;;0.73;;
49590;SDS011;35496;-21.974;-46.800;2023-03-12T02:51:29;1.15;;;0.43;;
49590;SDS011;35496;-21.974;-46.800;2023-03-12T02:53:55;1.35;;;0.73;;
49590;SDS011;35496;-21.974;-46.800;2023-03-12T02:56:24;2.17;;;0.77;;
49590;SDS011;35496;-21.974;-46.800;2023-03-12T02:58:51;2.05;;;0.65;;
49590;SDS011;35496;-21.974;-46.800;2023-03-12T03:01:18;1.38;;;0.60;;
49590;SDS011;35496;-21.974;-46.800;2023-03-12T03:03:45;1.88;;;1.00;;
49590;SDS011;35496;-21.974;-46.800;2023-03-12T03:06:11;2.67;;;0.93;;
49590;SDS011;35496;-21.974;-46.800;2023-03-12T03:08:37;0.73;;;0.73;;
49590;SDS011;35496;-21.974;-46.800;2023-03-12T03:11:04;2.30;;;1.17;;
49590;SDS011;35496;-21.974;-46.800;2023-03-12T03:13:30;3.65;;;1.30;;
49590;SDS011;35496;-21.974;-46.800;2023-03-12T03:15:57;1.42;;;1.00;;
49590;SDS011;35496;-21.974;-46.800;2023-03-12T03:18:24;6.63;;;2.15;;
49590;SDS011;35496;-21.974;-46.800;2023-03-12T03:20:54;1.58;;;1.13;;
49590;SDS011;35496;-21.974;-46.800;2023-03-12T03:23:20;1.10;;;1.00;;
49590;SDS011;35496;-21.974;-46.800;2023-03-12T03:25:46;5.13;;;1.55;;
49590;SDS011;35496;-21.974;-46.800;2023-03-12T03:28:12;5.78;;;1.50;;
49590;SDS011;35496;-21.974;-46.800;2023-03-12T03:30:38;6.40;;;1.60;;
49590;SDS011;35496;-21.974;-46.800;2023-03-12T03:33:04;1.80;;;0.90;;
49590;SDS011;35496;-21.974;-46.800;2023-03-12T03:35:32;6.38;;;2.20;;
49590;SDS011;35496;-21.974;-46.800;2023-03-12T03:37:58;1.30;;;1.17;;
49590;SDS011;35496;-21.974;-46.800;2023-03-12T03:40:24;1.33;;;1.17;;
49590;SDS011;35496;-21.974;-46.800;2023-03-12T03:42:50;1.52;;;1.33;;
49590;SDS011;35496;-21.974;-46.800;2023-03-12T03:45:16;2.95;;;1.33;;
49590;SDS011;35496;-21.974;-46.800;2023-03-12T03:47:44;1.05;;;0.98;;
49590;SDS011;35496;-21.974;-46.800;2023-03-12T03:50:10;3.88;;;1.67;;
49590;SDS011;35496;-21.974;-46.800;2023-03-12T03:52:36;2.42;;;1.73;;
49590;SDS011;35496;-21.974;-46.800;2023-03-12T03:55:02;4.10;;;1.52;;
49590;SDS011;35496;-21.974;-46.800;2023-03-12T03:57:28;9.32;;;1.92;;
49590;SDS011;35496;-21.974;-46.800;2023-03-12T03:59:54;2.40;;;1.52;;
49590;SDS011;35496;-21.974;-46.800;2023-03-12T04:02:24;6.28;;;1.30;;
49590;SDS011;35496;-21.974;-46.800;2023-03-12T04:04:50;2.38;;;1.33;;
49590;SDS011;35496;-21.974;-46.800;2023-03-12T04:07:18;3.70;;;1.85;;
49590;SDS011;35496;-21.974;-46.800;2023-03-12T04:09:45;2.88;;;1.73;;
49590;SDS011;35496;-21.974;-46.800;2023-03-12T04:12:11;3.17;;;1.83;;
49590;SDS011;35496;-21.974;-46.800;2023-03-12T04:14:40;8.18;;;0.93;;
49590;SDS011;35496;-21.974;-46.800;2023-03-12T04:17:07;3.67;;;1.60;;
49590;SDS011;35496;-21.974;-46.800;2023-03-12T04:19:33;2.60;;;0.88;;
49590;SDS011;35496;-21.974;-46.800;2023-03-12T04:21:59;3.40;;;0.82;;
49590;SDS011;35496;-21.974;-46.800;2023-03-12T04:24:25;13.77;;;1.52;;
49590;SDS011;35496;-21.974;-46.800;2023-03-12T04:26:51;2.28;;;1.73;;
49590;SDS011;35496;-21.974;-46.800;2023-03-12T04:29:18;1.05;;;0.70;;
49590;SDS011;35496;-21.974;-46.800;2023-03-12T04:31:44;4.55;;;1.00;;
49590;SDS011;35496;-21.974;-46.800;2023-03-12T04:34:10;2.50;;;1.60;;
49590;SDS011;35496;-21.974;-46.800;2023-03-12T04:36:37;4.25;;;1.40;;
49590;SDS011;35496;-21.974;-46.800;2023-03-12T04:39:03;2.25;;;0.95;;
49590;SDS011;35496;-21.974;-46.800;2023-03-12T04:41:32;2.00;;;1.60;;
49590;SDS011;35496;-21.974;-46.800;2023-03-12T04:43:58;11.57;;;1.70;;
49590;SDS011;35496;-21.974;-46.800;2023-03-12T04:46:25;5.50;;;1.00;;
49590;SDS011;35496;-21.974;-46.800;2023-03-12T04:48:51;3.60;;;1.73;;
49590;SDS011;35496;-21.974;-46.800;2023-03-12T04:51:17;2.00;;;1.20;;
49590;SDS011;35496;-21.974;-46.800;2023-03-12T04:53:43;1.42;;;0.80;;
49590;SDS011;35496;-21.974;-46.800;2023-03-12T04:56:09;1.42;;;1.15;;
49590;SDS011;35496;-21.974;-46.800;2023-03-12T04:58:35;1.73;;;1.45;;
49590;SDS011;35496;-21.974;-46.800;2023-03-12T05:01:02;8.38;;;2.03;;
49590;SDS011;35496;-21.974;-46.800;2023-03-12T05:03:28;0.93;;;0.93;;
49590;SDS011;35496;-21.974;-46.800;2023-03-12T05:05:54;2.45;;;1.10;;
49590;SDS011;35496;-21.974;-46.800;2023-03-12T05:08:20;2.22;;;1.83;;
49590;SDS011;35496;-21.974;-46.800;2023-03-12T05:10:46;1.52;;;1.20;;
49590;SDS011;35496;-21.974;-46.800;2023-03-12T05:13:19;3.13;;;1.10;;
49590;SDS011;35496;-21.974;-46.800;2023-03-12T05:15:45;1.50;;;0.98;;
49590;SDS011;35496;-21.974;-46.800;2023-03-12T05:18:12;1.85;;;1.55;;
49590;SDS011;35496;-21.974;-46.800;2023-03-12T05:20:39;4.47;;;1.15;;
49590;SDS011;35496;-21.974;-46.800;2023-03-12T05:23:05;1.88;;;1.17;;
49590;SDS011;35496;-21.974;-46.800;2023-03-12T05:25:31;2.20;;;1.30;;
49590;SDS011;35496;-21.974;-46.800;2023-03-12T05:27:57;6.97;;;2.05;;
49590;SDS011;35496;-21.974;-46.800;2023-03-12T05:30:23;5.20;;;1.30;;
49590;SDS011;35496;-21.974;-46.800;2023-03-12T05:32:49;2.00;;;0.90;;
49590;SDS011;35496;-21.974;-46.800;2023-03-12T05:35:15;5.13;;;1.10;;
49590;SDS011;35496;-21.974;-46.800;2023-03-12T05:37:41;1.52;;;0.82;;
49590;SDS011;35496;-21.974;-46.800;2023-03-12T05:40:10;2.03;;;1.02;;
49590;SDS011;35496;-21.974;-46.800;2023-03-12T05:42:37;2.63;;;0.98;;
49590;SDS011;35496;-21.974;-46.800;2023-03-12T05:45:03;2.10;;;0.90;;
49590;SDS011;35496;-21.974;-46.800;2023-03-12T05:47:29;0.98;;;0.60;;
49590;SDS011;35496;-21.974;-46.800;2023-03-12T05:49:55;1.70;;;0.90;;
49590;SDS011;35496;-21.974;-46.800;2023-03-12T05:52:21;2.28;;;0.93;;
49590;SDS011;35496;-21.974;-46.800;2023-03-12T05:54:47;1.42;;;1.33;;
49590;SDS011;35496;-21.974;-46.800;2023-03-12T05:57:13;3.22;;;2.10;;
49590;SDS011;35496;-21.974;-46.800;2023-03-12T05:59:39;4.05;;;1.35;;
49590;SDS011;35496;-21.974;-46.800;2023-03-12T06:02:05;1.42;;;1.10;;
49590;SDS011;35496;-21.974;-46.800;2023-03-12T06:04:31;0.90;;;0.90;;
49590;SDS011;35496;-21.974;-46.800;2023-03-12T06:06:57;0.85;;;0.63;;
49590;SDS011;35496;-21.974;-46.800;2023-03-12T06:09:23;1.55;;;1.45;;
49590;SDS011;35496;-21.974;-46.800;2023-03-12T06:11:49;1.00;;;0.73;;
49590;SDS011;35496;-21.974;-46.800;2023-03-12T06:14:15;1.92;;;1.20;;
49590;SDS011;35496;-21.974;-46.800;2023-03-12T06:16:41;0.90;;;0.85;;
49590;SDS011;35496;-21.974;-46.800;2023-03-12T06:19:09;2.60;;;1.35;;
49590;SDS011;35496;-21.974;-46.800;2023-03-12T06:21:38;2.05;;;1.50;;
49590;SDS011;35496;-21.974;-46.800;2023-03-12T06:24:04;3.92;;;1.20;;
49590;SDS011;35496;-21.974;-46.800;2023-03-12T06:26:30;3.47;;;1.42;;
49590;SDS011;35496;-21.974;-46.800;2023-03-12T06:28:56;2.08;;;1.17;;
49590;SDS011;35496;-21.974;-46.800;2023-03-12T06:31:23;2.17;;;0.93;;
49590;SDS011;35496;-21.974;-46.800;2023-03-12T06:33:49;0.80;;;0.70;;
49590;SDS011;35496;-21.974;-46.800;2023-03-12T06:36:15;1.55;;;1.30;;
49590;SDS011;35496;-21.974;-46.800;2023-03-12T06:38:41;1.77;;;1.23;;
49590;SDS011;35496;-21.974;-46.800;2023-03-12T06:41:08;1.67;;;1.58;;
49590;SDS011;35496;-21.974;-46.800;2023-03-12T06:43:35;2.22;;;1.58;;
49590;SDS011;35496;-21.974;-46.800;2023-03-12T06:46:02;1.38;;;1.15;;
49590;SDS011;35496;-21.974;-46.800;2023-03-12T06:48:29;4.45;;;1.40;;
49590;SDS011;35496;-21.974;-46.800;2023-03-12T06:50:58;1.95;;;1.45;;
49590;SDS011;35496;-21.974;-46.800;2023-03-12T06:53:24;1.20;;;0.98;;
49590;SDS011;35496;-21.974;-46.800;2023-03-12T06:55:50;1.58;;;1.40;;
49590;SDS011;35496;-21.974;-46.800;2023-03-12T06:58:16;1.20;;;1.10;;
49590;SDS011;35496;-21.974;-46.800;2023-03-12T07:00:42;3.35;;;1.27;;
49590;SDS011;35496;-21.974;-46.800;2023-03-12T07:03:08;5.13;;;1.52;;
49590;SDS011;35496;-21.974;-46.800;2023-03-12T07:05:34;1.50;;;1.40;;
49590;SDS011;35496;-21.974;-46.800;2023-03-12T07:08:00;2.90;;;2.22;;
49590;SDS011;35496;-21.974;-46.800;2023-03-12T07:10:26;2.45;;;1.52;;
49590;SDS011;35496;-21.974;-46.800;2023-03-12T07:12:54;1.30;;;1.15;;
49590;SDS011;35496;-21.974;-46.800;2023-03-12T07:15:20;4.05;;;1.35;;
49590;SDS011;35496;-21.974;-46.800;2023-03-12T07:17:46;1.48;;;1.27;;
49590;SDS011;35496;-21.974;-46.800;2023-03-12T07:20:12;1.42;;;1.17;;
49590;SDS011;35496;-21.974;-46.800;2023-03-12T07:22:39;2.80;;;1.38;;
49590;SDS011;35496;-21.974;-46.800;2023-03-12T07:25:05;1.88;;;1.50;;
49590;SDS011;35496;-21.974;-46.800;2023-03-12T07:27:31;5.43;;;1.70;;
49590;SDS011;35496;-21.974;-46.800;2023-03-12T07:29:57;3.50;;;1.45;;
49590;SDS011;35496;-21.974;-46.800;2023-03-12T07:32:23;2.05;;;1.20;;
49590;SDS011;35496;-21.974;-46.800;2023-03-12T07:34:49;2.08;;;1.88;;
49590;SDS011;35496;-21.974;-46.800;2023-03-12T07:37:15;3.15;;;1.85;;
49590;SDS011;35496;-21.974;-46.800;2023-03-12T07:39:41;3.10;;;1.27;;
49590;SDS011;35496;-21.974;-46.800;2023-03-12T07:42:08;13.85;;;1.63;;
49590;SDS011;35496;-21.974;-46.800;2023-03-12T07:44:37;4.30;;;1.33;;
49590;SDS011;35496;-21.974;-46.800;2023-03-12T07:47:03;3.38;;;1.13;;
49590;SDS011;35496;-21.974;-46.800;2023-03-12T07:49:29;1.60;;;1.50;;
49590;SDS011;35496;-21.974;-46.800;2023-03-12T07:51:55;4.18;;;1.83;;
49590;SDS011;35496;-21.974;-46.800;2023-03-12T07:54:21;2.22;;;1.20;;
49590;SDS011;35496;-21.974;-46.800;2023-03-12T07:56:50;3.53;;;1.05;;
49590;SDS011;35496;-21.974;-46.800;2023-03-12T07:59:16;1.98;;;0.88;;
49590;SDS011;35496;-21.974;-46.800;2023-03-12T08:01:43;1.30;;;1.20;;
49590;SDS011;35496;-21.974;-46.800;2023-03-12T08:04:09;2.40;;;1.33;;
49590;SDS011;35496;-21.974;-46.800;2023-03-12T08:06:36;4.10;;;1.23;;
49590;SDS011;35496;-21.974;-46.800;2023-03-12T08:09:03;3.90;;;1.65;;
49590;SDS011;35496;-21.974;-46.800;2023-03-12T08:11:29;1.70;;;1.35;;
49590;SDS011;35496;-21.974;-46.800;2023-03-12T08:13:58;4.22;;;1.45;;
49590;SDS011;35496;-21.974;-46.800;2023-03-12T08:16:24;3.40;;;1.42;;
49590;SDS011;35496;-21.974;-46.800;2023-03-12T08:18:50;5.25;;;1.25;;
49590;SDS011;35496;-21.974;-46.800;2023-03-12T08:21:16;2.53;;;0.98;;
49590;SDS011;35496;-21.974;-46.800;2023-03-12T08:23:42;2.13;;;1.65;;
49590;SDS011;35496;-21.974;-46.800;2023-03-12T08:26:08;5.75;;;2.05;;
49590;SDS011;35496;-21.974;-46.800;2023-03-12T08:28:34;2.25;;;2.00;;
49590;SDS011;35496;-21.974;-46.800;2023-03-12T08:31:00;3.08;;;1.70;;
49590;SDS011;35496;-21.974;-46.800;2023-03-12T08:33:26;3.00;;;1.52;;
49590;SDS011;35496;-21.974;-46.800;2023-03-12T08:35:53;2.42;;;1.52;;
49590;SDS011;35496;-21.974;-46.800;2023-03-12T08:38:19;2.38;;;1.48;;
49590;SDS011;35496;-21.974;-46.800;2023-03-12T08:40:45;1.75;;;1.40;;
49590;SDS011;35496;-21.974;-46.800;2023-03-12T08:43:11;4.05;;;1.70;;
49590;SDS011;35496;-21.974;-46.800;2023-03-12T08:45:37;2.38;;;1.52;;
49590;SDS011;35496;-21.974;-46.800;2023-03-12T08:48:04;4.03;;;1.67;;
49590;SDS011;35496;-21.974;-46.800;2023-03-12T08:50:30;3.65;;;1.42;;
49590;SDS011;35496;-21.974;-46.800;2023-03-12T08:52:57;5.47;;;2.22;;
49590;SDS011;35496;-21.974;-46.800;2023-03-12T08:55:24;18.70;;;2.60;;
49590;SDS011;35496;-21.974;-46.800;2023-03-12T08:57:52;1.85;;;1.67;;
49590;SDS011;35496;-21.974;-46.800;2023-03-12T09:00:18;5.22;;;2.25;;
49590;SDS011;35496;-21.974;-46.800;2023-03-12T09:02:45;4.80;;;2.05;;
49590;SDS011;35496;-21.974;-46.800;2023-03-12T09:05:11;6.35;;;2.22;;
49590;SDS011;35496;-21.974;-46.800;2023-03-12T09:07:37;2.28;;;1.23;;
49590;SDS011;35496;-21.974;-46.800;2023-03-12T09:10:04;3.35;;;2.83;;
49590;SDS011;35496;-21.974;-46.800;2023-03-12T09:12:30;4.82;;;1.98;;
49590;SDS011;35496;-21.974;-46.800;2023-03-12T09:14:56;1.73;;;1.63;;
49590;SDS011;35496;-21.974;-46.800;2023-03-12T09:17:22;7.43;;;2.88;;
49590;SDS011;35496;-21.974;-46.800;2023-03-12T09:19:48;2.97;;;1.90;;
49590;SDS011;35496;-21.974;-46.800;2023-03-12T09:22:14;2.70;;;2.50;;
49590;SDS011;35496;-21.974;-46.800;2023-03-12T09:24:41;4.63;;;2.53;;
49590;SDS011;35496;-21.974;-46.800;2023-03-12T09:27:07;5.60;;;2.97;;
49590;SDS011;35496;-21.974;-46.800;2023-03-12T09:29:33;5.20;;;3.10;;
49590;SDS011;35496;-21.974;-46.800;2023-03-12T09:32:00;4.70;;;2.80;;
49590;SDS011;35496;-21.974;-46.800;2023-03-12T09:34:27;3.72;;;2.75;;
49590;SDS011;35496;-21.974;-46.800;2023-03-12T09:36:52;6.15;;;3.35;;
49590;SDS011;35496;-21.974;-46.800;2023-03-12T09:39:18;3.92;;;2.83;;
49590;SDS011;35496;-21.974;-46.800;2023-03-12T09:41:45;3.78;;;2.30;;
49590;SDS011;35496;-21.974;-46.800;2023-03-12T09:46:51;6.03;;;2.60;;
49590;SDS011;35496;-21.974;-46.800;2023-03-12T09:54:21;6.95;;;2.80;;
49590;SDS011;35496;-21.974;-46.800;2023-03-12T09:56:49;8.90;;;2.60;;
49590;SDS011;35496;-21.974;-46.800;2023-03-12T09:59:15;6.90;;;3.35;;
49590;SDS011;35496;-21.974;-46.800;2023-03-12T10:04:19;3.38;;;3.08;;
49590;SDS011;35496;-21.974;-46.800;2023-03-12T10:16:50;1.80;;;1.35;;
49590;SDS011;35496;-21.974;-46.800;2023-03-12T10:22:11;1.63;;;1.30;;
49590;SDS011;35496;-21.974;-46.800;2023-03-12T10:24:44;1.40;;;1.20;;
49590;SDS011;35496;-21.974;-46.800;2023-03-12T10:27:14;2.92;;;1.63;;
49590;SDS011;35496;-21.974;-46.800;2023-03-12T10:29:41;3.90;;;1.60;;
49590;SDS011;35496;-21.974;-46.800;2023-03-12T10:34:57;5.13;;;1.67;;
49590;SDS011;35496;-21.974;-46.800;2023-03-12T10:37:25;1.88;;;1.55;;
49590;SDS011;35496;-21.974;-46.800;2023-03-12T10:39:53;3.55;;;2.03;;
49590;SDS011;35496;-21.974;-46.800;2023-03-12T10:42:25;2.70;;;1.35;;
49590;SDS011;35496;-21.974;-46.800;2023-03-12T10:45:38;2.25;;;1.52;;
49590;SDS011;35496;-21.974;-46.800;2023-03-12T10:47:38;1.48;;;1.38;;
49590;SDS011;35496;-21.974;-46.800;2023-03-12T10:50:12;2.42;;;1.45;;
49590;SDS011;35496;-21.974;-46.800;2023-03-12T10:52:39;1.42;;;1.33;;
49590;SDS011;35496;-21.974;-46.800;2023-03-12T10:57:41;3.05;;;1.70;;
49590;SDS011;35496;-21.974;-46.800;2023-03-12T11:00:07;1.50;;;0.73;;
49590;SDS011;35496;-21.974;-46.800;2023-03-12T11:02:43;3.08;;;1.67;;
49590;SDS011;35496;-21.974;-46.800;2023-03-12T11:07:44;1.80;;;1.15;;
49590;SDS011;35496;-21.974;-46.800;2023-03-12T11:10:12;1.75;;;1.60;;
49590;SDS011;35496;-21.974;-46.800;2023-03-12T11:12:38;3.28;;;1.75;;
49590;SDS011;35496;-21.974;-46.800;2023-03-12T11:15:27;13.32;;;1.70;;
49590;SDS011;35496;-21.974;-46.800;2023-03-12T11:17:57;3.20;;;1.35;;
49590;SDS011;35496;-21.974;-46.800;2023-03-12T11:20:38;1.15;;;1.00;;
49590;SDS011;35496;-21.974;-46.800;2023-03-12T11:23:14;6.13;;;1.75;;
49590;SDS011;35496;-21.974;-46.800;2023-03-12T11:25:40;2.45;;;1.67;;
49590;SDS011;35496;-21.974;-46.800;2023-03-12T11:28:09;2.80;;;1.10;;
49590;SDS011;35496;-21.974;-46.800;2023-03-12T11:30:38;1.13;;;1.13;;
49590;SDS011;35496;-21.974;-46.800;2023-03-12T11:33:04;2.70;;;1.10;;
49590;SDS011;35496;-21.974;-46.800;2023-03-12T11:35:44;2.40;;;1.20;;
49590;SDS011;35496;-21.974;-46.800;2023-03-12T11:38:20;2.15;;;1.17;;
49590;SDS011;35496;-21.974;-46.800;2023-03-12T11:45:49;3.30;;;1.73;;
49590;SDS011;35496;-21.974;-46.800;2023-03-12T11:51:10;11.15;;;1.67;;
49590;SDS011;35496;-21.974;-46.800;2023-03-12T11:59:13;14.73;;;2.00;;
49590;SDS011;35496;-21.974;-46.800;2023-03-12T12:03:59;3.05;;;1.23;;
49590;SDS011;35496;-21.974;-46.800;2023-03-12T12:06:40;2.33;;;1.67;;
49590;SDS011;35496;-21.974;-46.800;2023-03-12T12:09:24;1.00;;;1.00;;
49590;SDS011;35496;-21.974;-46.800;2023-03-12T12:15:08;1.55;;;1.30;;
49590;SDS011;35496;-21.974;-46.800;2023-03-12T12:20:46;1.20;;;1.10;;
49590;SDS011;35496;-21.974;-46.800;2023-03-12T12:25:21;2.38;;;0.95;;
49590;SDS011;35496;-21.974;-46.800;2023-03-12T12:30:39;1.40;;;1.30;;
49590;SDS011;35496;-21.974;-46.800;2023-03-12T12:33:18;0.98;;;0.90;;
49590;SDS011;35496;-21.974;-46.800;2023-03-12T12:35:48;2.33;;;1.35;;
49590;SDS011;35496;-21.974;-46.800;2023-03-12T12:40:50;1.88;;;1.13;;
49590;SDS011;35496;-21.974;-46.800;2023-03-12T12:43:27;1.10;;;1.00;;
49590;SDS011;35496;-21.974;-46.800;2023-03-12T12:45:59;0.70;;;0.70;;
49590;SDS011;35496;-21.974;-46.800;2023-03-12T12:48:38;1.58;;;1.02;;
49590;SDS011;35496;-21.974;-46.800;2023-03-12T12:51:05;1.58;;;1.05;;
49590;SDS011;35496;-21.974;-46.800;2023-03-12T12:53:46;1.30;;;1.08;;
49590;SDS011;35496;-21.974;-46.800;2023-03-12T13:01:09;1.02;;;0.77;;
49590;SDS011;35496;-21.974;-46.800;2023-03-12T13:03:35;2.03;;;0.73;;
49590;SDS011;35496;-21.974;-46.800;2023-03-12T13:06:03;0.63;;;0.63;;
49590;SDS011;35496;-21.974;-46.800;2023-03-12T13:13:45;0.95;;;0.80;;
49590;SDS011;35496;-21.974;-46.800;2023-03-12T13:16:17;1.35;;;1.02;;
49590;SDS011;35496;-21.974;-46.800;2023-03-12T13:18:57;2.17;;;1.30;;
49590;SDS011;35496;-21.974;-46.800;2023-03-12T13:22:09;2.15;;;0.70;;
49590;SDS011;35496;-21.974;-46.800;2023-03-12T13:27:04;0.85;;;0.85;;
49590;SDS011;35496;-21.974;-46.800;2023-03-12T13:29:35;0.70;;;0.70;;
49590;SDS011;35496;-21.974;-46.800;2023-03-12T13:32:02;0.88;;;0.88;;
49590;SDS011;35496;-21.974;-46.800;2023-03-12T13:34:30;3.85;;;1.50;;
49590;SDS011;35496;-21.974;-46.800;2023-03-12T13:36:57;1.30;;;1.20;;
49590;SDS011;35496;-21.974;-46.800;2023-03-12T13:41:53;0.93;;;0.93;;
49590;SDS011;35496;-21.974;-46.800;2023-03-12T13:47:03;0.55;;;0.55;;
49590;SDS011;35496;-21.974;-46.800;2023-03-12T13:49:34;1.65;;;1.55;;
49590;SDS011;35496;-21.974;-46.800;2023-03-12T13:52:23;1.02;;;0.60;;
49590;SDS011;35496;-21.974;-46.800;2023-03-12T13:54:48;0.93;;;0.88;;
49590;SDS011;35496;-21.974;-46.800;2023-03-12T13:59:54;1.13;;;0.98;;
49590;SDS011;35496;-21.974;-46.800;2023-03-12T14:02:26;1.08;;;0.88;;
49590;SDS011;35496;-21.974;-46.800;2023-03-12T14:04:53;1.92;;;1.33;;
49590;SDS011;35496;-21.974;-46.800;2023-03-12T14:12:29;2.92;;;1.20;;
49590;SDS011;35496;-21.974;-46.800;2023-03-12T14:17:23;1.08;;;0.80;;
49590;SDS011;35496;-21.974;-46.800;2023-03-12T14:20:00;3.17;;;0.95;;
49590;SDS011;35496;-21.974;-46.800;2023-03-12T14:22:33;1.20;;;1.10;;
49590;SDS011;35496;-21.974;-46.800;2023-03-12T14:25:05;0.90;;;0.90;;
49590;SDS011;35496;-21.974;-46.800;2023-03-12T14:27:31;1.20;;;0.73;;
49590;SDS011;35496;-21.974;-46.800;2023-03-12T14:32:26;0.60;;;0.60;;
49590;SDS011;35496;-21.974;-46.800;2023-03-12T14:34:56;2.85;;;0.90;;
49590;SDS011;35496;-21.974;-46.800;2023-03-12T14:37:28;4.47;;;1.17;;
49590;SDS011;35496;-21.974;-46.800;2023-03-12T14:39:56;0.60;;;0.60;;
49590;SDS011;35496;-21.974;-46.800;2023-03-12T14:42:28;1.38;;;0.80;;
49590;SDS011;35496;-21.974;-46.800;2023-03-12T14:45:16;0.80;;;0.68;;
49590;SDS011;35496;-21.974;-46.800;2023-03-12T14:47:45;1.38;;;0.95;;
49590;SDS011;35496;-21.974;-46.800;2023-03-12T14:50:44;1.25;;;0.70;;
49590;SDS011;35496;-21.974;-46.800;2023-03-12T14:53:10;1.55;;;1.23;;
49590;SDS011;35496;-21.974;-46.800;2023-03-12T14:55:36;0.75;;;0.63;;
49590;SDS011;35496;-21.974;-46.800;2023-03-12T14:58:13;0.45;;;0.45;;
49590;SDS011;35496;-21.974;-46.800;2023-03-12T15:00:40;0.85;;;0.80;;
49590;SDS011;35496;-21.974;-46.800;2023-03-12T15:03:09;1.05;;;0.95;;
49590;SDS011;35496;-21.974;-46.800;2023-03-12T15:05:37;5.30;;;0.90;;
49590;SDS011;35496;-21.974;-46.800;2023-03-12T15:08:03;0.95;;;0.70;;
49590;SDS011;35496;-21.974;-46.800;2023-03-12T15:10:30;1.85;;;0.88;;
49590;SDS011;35496;-21.974;-46.800;2023-03-12T15:12:57;0.75;;;0.60;;
49590;SDS011;35496;-21.974;-46.800;2023-03-12T15:17:49;0.95;;;0.63;;
49590;SDS011;35496;-21.974;-46.800;2023-03-12T15:20:16;0.70;;;0.50;;
49590;SDS011;35496;-21.974;-46.800;2023-03-12T15:22:43;0.77;;;0.77;;
49590;SDS011;35496;-21.974;-46.800;2023-03-12T15:25:22;2.78;;;1.23;;
49590;SDS011;35496;-21.974;-46.800;2023-03-12T15:27:59;1.10;;;0.77;;
49590;SDS011;35496;-21.974;-46.800;2023-03-12T15:30:27;0.70;;;0.70;;
49590;SDS011;35496;-21.974;-46.800;2023-03-12T15:33:09;0.52;;;0.50;;
49590;SDS011;35496;-21.974;-46.800;2023-03-12T15:35:37;0.55;;;0.52;;
49590;SDS011;35496;-21.974;-46.800;2023-03-12T15:38:04;1.17;;;0.93;;
49590;SDS011;35496;-21.974;-46.800;2023-03-12T15:40:30;0.50;;;0.50;;
49590;SDS011;35496;-21.974;-46.800;2023-03-12T15:42:56;1.08;;;0.63;;
49590;SDS011;35496;-21.974;-46.800;2023-03-12T15:45:33;0.68;;;0.68;;
49590;SDS011;35496;-21.974;-46.800;2023-03-12T15:48:00;1.40;;;0.50;;
49590;SDS011;35496;-21.974;-46.800;2023-03-12T15:50:36;1.60;;;0.60;;
49590;SDS011;35496;-21.974;-46.800;2023-03-12T15:53:21;1.92;;;0.60;;
49590;SDS011;35496;-21.974;-46.800;2023-03-12T15:56:32;1.27;;;0.60;;